createdAt,value
2023-03-25T00:00:39.815Z,14.55
2023-03-25T00:03:46.590Z,14.94
2023-03-25T00:06:50.773Z,15.28
2023-03-25T00:09:55.163Z,15.49
2023-03-25T00:13:04.911Z,15.66
2023-03-25T00:16:10.358Z,15.81
2023-03-25T00:19:15.661Z,15.92
2023-03-25T00:22:20.516Z,16.01
2023-03-25T00:25:24.883Z,16.08
2023-03-25T00:28:31.018Z,16.12
2023-03-25T00:31:35.742Z,16.17
2023-03-25T00:34:47.784Z,16.21
2023-03-25T00:37:57.834Z,16.28
2023-03-25T00:41:10.478Z,16.29
2023-03-25T00:44:17.283Z,16.20
2023-03-25T00:47:22.270Z,15.75
2023-03-25T00:50:26.767Z,15.30
2023-03-25T00:53:31.218Z,14.96
2023-03-25T00:56:35.817Z,14.68
2023-03-25T00:59:40.336Z,14.44
2023-03-25T01:02:45.975Z,14.31
2023-03-25T01:05:51.136Z,14.55
2023-03-25T01:08:55.991Z,14.74
2023-03-25T01:12:00.492Z,14.87
2023-03-25T01:15:05.252Z,14.97
2023-03-25T01:18:09.570Z,15.08
2023-03-25T01:21:13.867Z,15.19
2023-03-25T01:24:18.617Z,15.28
2023-03-25T01:27:24.602Z,15.31
2023-03-25T01:30:29.104Z,15.36
2023-03-25T01:33:33.840Z,15.38
2023-03-25T01:36:39.916Z,15.38
2023-03-25T01:39:44.419Z,15.41
2023-03-25T01:42:48.714Z,15.47
2023-03-25T01:45:53.275Z,15.53
2023-03-25T01:48:58.178Z,15.55
2023-03-25T01:52:04.759Z,15.61
2023-03-25T01:55:10.263Z,15.69
2023-03-25T01:58:16.339Z,15.71
2023-03-25T02:01:21.881Z,15.59
2023-03-25T02:04:28.930Z,15.52
2023-03-25T02:07:34.950Z,15.54
2023-03-25T02:10:39.622Z,15.59
2023-03-25T02:13:44.039Z,15.63
2023-03-25T02:16:53.164Z,15.70
2023-03-25T02:20:20.165Z,15.76
2023-03-25T02:23:42.320Z,15.80
2023-03-25T02:27:13.975Z,15.85
2023-03-25T02:30:34.429Z,15.88
2023-03-25T02:33:53.249Z,15.90
2023-03-25T02:37:12.974Z,15.93
2023-03-25T02:40:20.135Z,15.94
2023-03-25T02:43:28.843Z,15.93
2023-03-25T02:46:33.587Z,15.91
2023-03-25T02:49:39.333Z,15.92
2023-03-25T02:52:45.682Z,15.91
2023-03-25T02:55:52.624Z,15.91
2023-03-25T02:58:58.337Z,15.89
2023-03-25T03:02:04.171Z,15.89
2023-03-25T03:05:22.475Z,15.88
2023-03-25T03:08:33.556Z,15.85
2023-03-25T03:11:43.505Z,15.85
2023-03-25T03:14:56.933Z,15.87
2023-03-25T03:18:15.972Z,15.89
2023-03-25T03:21:24.084Z,15.91
2023-03-25T03:24:32.077Z,15.94
2023-03-25T03:27:39.662Z,15.97
2023-03-25T03:30:47.316Z,15.98
2023-03-25T03:33:54.013Z,15.98
2023-03-25T03:36:59.345Z,15.98
2023-03-25T03:40:05.110Z,15.97
2023-03-25T03:43:11.749Z,15.97
2023-03-25T03:46:18.178Z,15.97
2023-03-25T03:49:26.375Z,15.98
2023-03-25T03:52:33.489Z,15.95
2023-03-25T03:55:41.944Z,15.94
2023-03-25T03:58:48.398Z,15.94
2023-03-25T04:01:56.927Z,15.94
2023-03-25T04:05:01.900Z,15.92
2023-03-25T04:08:12.259Z,15.89
2023-03-25T04:11:20.395Z,15.86
2023-03-25T04:14:25.074Z,15.82
2023-03-25T04:17:30.235Z,15.82
2023-03-25T04:20:36.875Z,15.81
2023-03-25T04:23:41.295Z,15.81
2023-03-25T04:26:45.647Z,15.79
2023-03-25T04:29:51.983Z,15.78
2023-03-25T04:32:57.159Z,15.80
2023-03-25T04:36:02.376Z,15.84
2023-03-25T04:39:07.482Z,15.86
2023-03-25T04:42:13.917Z,15.90
2023-03-25T04:45:18.504Z,15.94
2023-03-25T04:48:26.086Z,15.96
2023-03-25T04:51:31.015Z,15.99
2023-03-25T04:54:35.823Z,16.02
2023-03-25T04:57:40.333Z,16.06
2023-03-25T05:00:45.123Z,16.07
2023-03-25T05:03:50.408Z,16.07
2023-03-25T05:06:56.941Z,16.04
2023-03-25T05:10:01.856Z,16.00
2023-03-25T05:13:07.532Z,15.97
2023-03-25T05:16:11.908Z,15.95
2023-03-25T05:19:18.962Z,15.91
2023-03-25T05:22:23.563Z,15.86
2023-03-25T05:25:29.077Z,15.78
2023-03-25T05:28:33.922Z,15.70
2023-03-25T05:31:38.250Z,15.66
2023-03-25T05:34:42.716Z,15.65
2023-03-25T05:37:47.144Z,15.63
2023-03-25T05:40:51.563Z,15.46
2023-03-25T05:43:56.217Z,14.86
2023-03-25T05:47:01.716Z,14.31
2023-03-25T05:50:06.782Z,13.92
2023-03-25T05:53:12.455Z,13.61
2023-03-25T05:56:18.189Z,13.36
2023-03-25T05:59:22.708Z,13.13
2023-03-25T06:02:27.041Z,12.92
2023-03-25T06:05:31.702Z,12.74
2023-03-25T06:08:36.425Z,12.58
2023-03-25T06:11:40.929Z,12.56
2023-03-25T06:14:45.987Z,13.00
2023-03-25T06:17:50.422Z,13.43
2023-03-25T06:20:57.783Z,13.72
2023-03-25T06:24:02.505Z,13.93
2023-03-25T06:27:08.186Z,14.10
2023-03-25T06:30:13.694Z,14.24
2023-03-25T06:33:42.446Z,14.35
2023-03-25T06:36:44.465Z,14.46
2023-03-25T06:39:49.859Z,14.57
2023-03-25T06:42:54.245Z,14.67
2023-03-25T06:45:58.915Z,14.75
2023-03-25T06:49:03.506Z,14.80
2023-03-25T06:52:08.360Z,14.84
2023-03-25T06:55:12.969Z,14.90
2023-03-25T06:58:17.361Z,14.93
2023-03-25T07:01:21.725Z,14.97
2023-03-25T07:04:26.021Z,15.02
2023-03-25T07:07:30.208Z,15.08
2023-03-25T07:10:34.440Z,15.14
2023-03-25T07:13:38.793Z,15.19
2023-03-25T07:16:43.337Z,15.21
2023-03-25T07:19:48.038Z,15.24
2023-03-25T07:22:52.224Z,15.25
2023-03-25T07:25:56.982Z,15.28
2023-03-25T07:29:01.394Z,15.32
2023-03-25T07:32:06.113Z,15.38
2023-03-25T07:35:10.810Z,15.43
2023-03-25T07:38:15.392Z,15.48
2023-03-25T07:41:19.821Z,15.53
2023-03-25T07:44:24.041Z,15.58
2023-03-25T07:47:28.552Z,15.62
2023-03-25T07:50:32.976Z,15.66
2023-03-25T07:53:39.166Z,15.68
2023-03-25T07:56:43.573Z,15.68
2023-03-25T07:59:48.097Z,15.70
2023-03-25T08:02:52.593Z,15.73
2023-03-25T08:05:57.360Z,15.77
2023-03-25T08:09:01.757Z,15.82
2023-03-25T08:12:06.295Z,15.87
2023-03-25T08:15:11.955Z,15.93
2023-03-25T08:18:16.820Z,15.98
2023-03-25T08:21:25.349Z,16.04
2023-03-25T08:24:32.626Z,16.11
2023-03-25T08:27:37.121Z,16.18
2023-03-25T08:30:41.885Z,16.27
2023-03-25T08:33:47.408Z,16.33
2023-03-25T08:36:51.972Z,16.38
2023-03-25T08:39:58.102Z,16.46
2023-03-25T08:43:04.653Z,16.55
2023-03-25T08:46:09.408Z,16.58
2023-03-25T08:49:13.928Z,16.15
2023-03-25T08:52:18.241Z,15.66
2023-03-25T08:55:23.430Z,15.34
2023-03-25T08:58:28.110Z,15.10
2023-03-25T09:01:32.450Z,14.92
2023-03-25T09:04:39.065Z,14.78
2023-03-25T09:07:43.634Z,14.67
2023-03-25T13:18:04.235Z,16.13
2023-03-25T13:21:17.806Z,15.94
2023-03-25T13:24:30.368Z,15.73
2023-03-25T13:27:40.889Z,15.49
2023-03-25T13:30:49.348Z,15.26
2023-03-25T13:34:03.485Z,15.02
2023-03-25T13:37:17.931Z,14.84
2023-03-25T13:40:34.005Z,14.66
2023-03-25T13:43:47.643Z,14.51
2023-03-25T13:46:58.701Z,14.35
2023-03-25T13:50:10.011Z,14.23
2023-03-25T13:53:23.091Z,14.15
2023-03-25T13:56:58.387Z,14.10
2023-03-25T14:00:40.009Z,14.06
2023-03-25T14:04:12.606Z,14.04
2023-03-25T14:07:52.210Z,14.05
2023-03-25T14:11:14.068Z,14.05
2023-03-25T14:14:23.290Z,14.11
2023-03-25T14:17:30.288Z,14.24
2023-03-25T14:20:41.443Z,14.40
2023-03-25T14:23:48.121Z,14.55
2023-03-25T14:26:57.922Z,14.63
2023-03-25T14:30:07.363Z,14.68
2023-03-25T14:33:14.203Z,14.68
2023-03-25T14:36:29.745Z,14.65
2023-03-25T14:39:42.894Z,14.63
2023-03-25T14:43:01.893Z,14.63
2023-03-25T14:46:20.442Z,14.63
2023-03-25T14:49:46.593Z,14.61
2023-03-25T14:52:56.352Z,14.59
2023-03-25T14:56:07.532Z,14.57
2023-03-25T14:59:19.916Z,14.55
2023-03-25T15:02:29.979Z,14.53
2023-03-25T15:05:38.384Z,14.52
2023-03-25T15:08:53.353Z,14.49
2023-03-25T15:12:02.529Z,14.47
2023-03-25T15:15:26.664Z,14.46
2023-03-25T15:19:09.278Z,14.47
2023-03-25T15:22:25.898Z,14.49
2023-03-25T15:25:32.445Z,14.51
2023-03-25T15:29:06.524Z,14.50
2023-03-25T15:32:34.434Z,14.46
2023-03-25T15:35:53.670Z,14.41
2023-03-25T15:39:15.933Z,14.35
2023-03-25T15:42:38.404Z,14.27
2023-03-25T15:46:26.553Z,14.20
2023-03-25T15:50:00.478Z,14.13
2023-03-25T15:53:42.531Z,14.08
2023-03-25T15:56:51.586Z,14.01
2023-03-25T16:00:09.124Z,13.93
2023-03-25T16:03:21.043Z,13.85
2023-03-25T16:06:28.667Z,13.78
2023-03-25T16:09:41.874Z,13.71
2023-03-25T16:12:51.101Z,13.63
2023-03-25T16:15:59.315Z,13.57
2023-03-25T16:19:07.123Z,13.49
2023-03-25T16:22:19.409Z,13.43
2023-03-25T16:25:28.887Z,13.38
2023-03-25T16:28:42.764Z,13.35
2023-03-25T16:31:57.976Z,13.33
2023-03-25T16:35:04.737Z,13.30
2023-03-25T16:38:14.714Z,13.27
2023-03-25T16:41:20.719Z,13.24
2023-03-25T16:44:27.009Z,13.19
2023-03-25T16:47:34.483Z,13.15
2023-03-25T16:50:42.529Z,13.11
2023-03-25T16:53:56.050Z,13.06
2023-03-25T16:57:02.600Z,13.01
2023-03-25T17:00:18.909Z,12.95
2023-03-25T17:03:43.089Z,12.89
2023-03-25T17:06:54.755Z,12.82
2023-03-25T17:10:01.792Z,12.75
2023-03-25T17:13:10.844Z,12.69
2023-03-25T17:16:16.833Z,12.66
2023-03-25T17:19:26.765Z,12.61
2023-03-25T17:22:36.434Z,12.56
2023-03-25T17:25:55.054Z,12.52
2023-03-25T17:29:04.165Z,12.46
2023-03-25T17:32:19.908Z,12.39
2023-03-25T17:35:31.582Z,12.34
2023-03-25T17:38:40.270Z,12.29
2023-03-25T17:41:46.582Z,12.25
2023-03-25T17:44:53.137Z,12.20
2023-03-25T17:47:59.035Z,12.15
2023-03-25T17:51:05.771Z,12.10
2023-03-25T17:54:11.647Z,12.04
2023-03-25T17:57:19.925Z,11.98
2023-03-25T18:00:25.912Z,11.94
2023-03-25T18:03:33.503Z,11.88
2023-03-25T18:06:39.386Z,11.83
2023-03-25T18:09:45.327Z,11.78
2023-03-25T18:12:51.285Z,11.73
2023-03-25T18:15:57.707Z,11.67
2023-03-25T18:19:03.929Z,11.60
2023-03-25T18:22:19.680Z,11.55
2023-03-25T18:25:27.308Z,11.47
2023-03-25T18:28:34.567Z,11.41
2023-03-25T18:31:40.799Z,11.34
2023-03-25T18:34:46.928Z,11.28
2023-03-25T18:37:52.782Z,11.22
2023-03-25T18:40:58.884Z,11.15
2023-03-25T18:44:04.706Z,11.08
2023-03-25T18:47:11.938Z,11.02
2023-03-25T18:50:23.846Z,10.96
2023-03-25T18:53:31.270Z,10.87
2023-03-25T18:56:37.179Z,10.70
2023-03-25T18:59:43.112Z,10.56
2023-03-25T19:02:49.857Z,10.45
2023-03-25T19:05:55.843Z,10.36
2023-03-25T19:09:01.669Z,10.29
2023-03-25T19:12:08.637Z,10.23
2023-03-25T19:15:16.291Z,10.21
2023-03-25T19:18:26.275Z,10.18
2023-03-25T19:21:32.049Z,10.17
2023-03-25T19:24:37.957Z,10.14
2023-03-25T19:27:44.401Z,10.11
2023-03-25T19:33:57.125Z,10.04
2023-03-25T19:37:08.017Z,10.02
2023-03-25T19:40:16.002Z,9.99
2023-03-25T19:43:21.988Z,9.98
2023-03-25T19:46:29.362Z,9.95
2023-03-25T19:49:40.034Z,9.93
2023-03-25T19:52:47.041Z,9.92
2023-03-25T19:55:53.316Z,9.92
2023-03-25T19:58:59.471Z,9.91
2023-03-25T20:02:05.698Z,9.89
2023-03-25T20:05:11.688Z,9.87
2023-03-25T20:08:15.801Z,9.85
2023-03-25T20:11:21.828Z,9.83
2023-03-25T20:14:27.686Z,9.87
2023-03-25T20:17:33.664Z,10.38
2023-03-25T20:20:40.453Z,10.91
2023-03-25T20:23:46.731Z,11.31
2023-03-25T20:26:50.919Z,11.62
2023-03-25T20:29:56.921Z,11.86
2023-03-25T20:33:02.940Z,11.95
2023-03-25T20:36:08.746Z,11.55
2023-03-25T20:39:14.586Z,11.15
2023-03-25T20:42:20.660Z,10.84
2023-03-25T20:45:29.470Z,10.60
2023-03-25T20:48:36.353Z,10.48
2023-03-25T20:51:43.555Z,10.84
2023-03-25T20:54:49.806Z,11.22
2023-03-25T20:57:53.956Z,11.47
2023-03-25T21:01:00.969Z,11.61
2023-03-25T21:04:06.998Z,11.75
2023-03-25T21:07:12.823Z,11.89
2023-03-25T21:10:20.326Z,11.87
2023-03-25T21:13:28.721Z,11.36
2023-03-25T21:16:34.691Z,10.88
2023-03-25T21:19:41.072Z,10.51
2023-03-25T21:22:45.201Z,10.22
2023-03-25T21:25:52.179Z,9.98
2023-03-25T21:28:58.224Z,9.82
2023-03-25T21:32:04.159Z,10.08
2023-03-25T21:35:11.655Z,10.39
2023-03-25T21:38:17.438Z,10.66
2023-03-25T21:41:36.349Z,10.85
2023-03-25T21:44:43.177Z,11.00
2023-03-25T21:47:53.517Z,11.14
2023-03-25T21:51:01.566Z,11.30
2023-03-25T21:54:08.221Z,11.43
2023-03-25T21:57:14.212Z,11.54
2023-03-25T22:00:23.457Z,11.51
2023-03-25T22:03:35.596Z,10.98
2023-03-25T22:06:41.737Z,10.48
2023-03-25T22:09:48.375Z,10.11
2023-03-25T22:12:54.222Z,9.90
2023-03-25T22:16:00.602Z,10.21
2023-03-25T22:19:05.308Z,10.54
2023-03-25T22:22:11.225Z,10.73
2023-03-25T22:25:17.267Z,10.89
2023-03-25T22:28:23.283Z,11.00
2023-03-25T22:31:31.820Z,11.08
2023-03-25T22:34:37.942Z,11.12
2023-03-25T22:37:45.733Z,11.16
2023-03-25T22:40:51.483Z,11.20
2023-03-25T22:43:57.695Z,11.13
2023-03-25T22:47:03.954Z,10.62
2023-03-25T22:50:11.670Z,10.16
2023-03-25T22:53:17.620Z,9.84
2023-03-25T22:56:26.030Z,9.62
2023-03-25T22:59:32.283Z,9.47
2023-03-25T23:02:37.209Z,9.36
2023-03-25T23:05:44.017Z,9.28
2023-03-25T23:08:50.393Z,9.21
2023-03-25T23:11:56.297Z,9.28
2023-03-25T23:15:02.517Z,9.84
2023-03-25T23:18:06.938Z,10.36
2023-03-25T23:21:14.547Z,10.71
2023-03-25T23:24:20.804Z,11.00
2023-03-25T23:27:26.979Z,11.21
2023-03-25T23:30:33.236Z,11.36
2023-03-25T23:33:37.824Z,11.39
2023-03-25T23:36:45.372Z,10.92
2023-03-25T23:39:53.351Z,10.49
2023-03-25T23:42:59.110Z,10.18
2023-03-25T23:46:05.948Z,9.94
2023-03-25T23:49:11.960Z,9.74
2023-03-25T23:52:17.697Z,9.56
2023-03-25T23:55:23.533Z,9.40
2023-03-25T23:58:30.579Z,9.24
